• Join FlightAware (Why Join?)
  • Login
  • US Flag 
12:59AM EST


 

Airport Tracker/Info


-or-


 

Live Flight TrackerFlight Track Log ✈ F-GSPR ✈ 27-Apr-2013 ✈ LFPG / CDG - VHHH / HKG

Flight Track Log - Related Links

Times and Time Zones

All times are in EDT time to prevent confusion due to time zone crossing. See the F-GSPR flight status page for this flight to view local times or setup timezone preferences in your user account.

Time Position Orientation Groundspeed Altitude Reporting Facility
EDT Latitude Longitude Course Direction KTS MPH feet Rate Location/Type
07:58AM 49.2076 3.0634 60° Northeast  Level Estimated
07:59AM 49.2720 3.2354 60° Northeast  Level Estimated
08:00AM 49.3362 3.4079 60° Northeast  Level Estimated
08:01AM 49.4002 3.5808 60° Northeast  Level Estimated
08:02AM 49.4638 3.7542 60° Northeast  Level Estimated
08:03AM 49.5272 3.9281 61° Northeast  Level Estimated
08:04AM 49.5904 4.1023 61° Northeast  Level Estimated
08:05AM 49.6533 4.2771 61° Northeast  Level Estimated
08:06AM 49.7159 4.4522 61° Northeast  Level Estimated
08:07AM 49.7782 4.6279 61° Northeast  Level Estimated
08:08AM 49.8403 4.8040 61° Northeast  Level Estimated
08:09AM 49.9021 4.9805 61° Northeast  Level Estimated
08:10AM 49.9637 5.1575 62° Northeast  Level Estimated
08:11AM 24.2360 111.2430 60° Northeast 476 548 22,600  Level FlightAware
08:12AM 24.1380 111.3470 60° Northeast 478 550 22,600  Level FlightAware
08:13AM 24.0700 111.4210 57° Northeast 478 550 22,600  Level FlightAware
08:14AM 23.9840 111.5140 57° Northeast 480 552 22,600 420 Level FlightAware
08:16AM 23.7840 111.7280 60° Northeast 487 560 23,900 900 Climbing FlightAware
08:17AM 23.7150 111.8020 60° Northeast 499 574 25,200 -11,940 Climbing FlightAware
08:18AM 49.0233 2.5637 85° East 170 196 900 -16,500 Descending FlightAware ADS-B
08:18AM 49.0243 2.5818 85° East 174 200 1,600 2,580 Climbing FlightAware ADS-B
08:18AM 49.0252 2.6002 86° East 172 198 2,200 2,220 Climbing FlightAware ADS-B
08:18AM 49.0259 2.6147 86° East 175 201 2,600 66,480 Climbing FlightAware ADS-B
08:19AM 23.4990 112.0330 60° Northeast 526 605 28,800 1,620 Climbing FlightAware
08:19AM 49.0271 2.6361 322° Northwest 179 206 3,100 -72,000 Descending FlightAware ADS-B
08:19AM 49.0282 2.6551 85° East 180 207 3,600 1,800 Climbing FlightAware ADS-B
08:19AM 49.0292 2.6752 86° East 188 216 4,000 1,140 Climbing FlightAware ADS-B
08:19AM 49.0306 2.6971 84° East 208 239 4,200 720 Climbing FlightAware ADS-B
08:20AM 49.0321 2.7228 85° East 230 265 4,400 1,080 Climbing FlightAware ADS-B
08:20AM 49.0335 2.7510 86° East 246 283 4,800 1,620 Climbing FlightAware ADS-B
08:20AM 49.0348 2.7780 86° East 256 295 5,300 2,100 Climbing FlightAware ADS-B
08:21AM 49.0361 2.8051 86° East 259 298 5,900 2,580 Climbing FlightAware ADS-B
08:21AM 49.0375 2.8329 86° East 261 300 6,600 2,580 Climbing FlightAware ADS-B
08:21AM 49.0388 2.8606 86° East 264 304 7,200 2,580 Climbing FlightAware ADS-B
08:21AM 49.0405 2.8923 85° East 266 306 8,000 69,120 Climbing FlightAware ADS-B
08:21AM 23.2120 112.3370 61° Northeast 529 609 29,100 1,980 Climbing FlightAware
08:22AM 49.0417 2.9205 322° Northwest 269 310 8,500 -41,220 Descending FlightAware ADS-B
08:22AM 49.0431 2.9508 86° East 272 313 9,200 2,460 Climbing FlightAware ADS-B
08:22AM 49.0453 2.9798 83° East 273 314 9,800 1,740 Climbing FlightAware ADS-B
08:23AM 49.0507 3.0422 82° East 289 333 10,600 1,200 Climbing FlightAware ADS-B
08:23AM 49.0554 3.1098 84° East 322 371 11,100 900 Climbing FlightAware ADS-B
08:24AM 49.0690 3.2200 79° East 364 419 11,800 1,140 Climbing FlightAware
08:24AM 49.0744 3.2587 78° East 373 429 12,300 2,100 Climbing FlightAware ADS-B
08:25AM 49.0860 3.3320 76° East 378 435 13,400 21,480 Climbing FlightAware
08:25AM 22.8320 112.7180 61° Northeast 512 589 27,000 1,680 Climbing FlightAware
08:25AM 49.1000 3.4300 322° Northwest 397 457 14,400 -540 Descending FlightAware
08:26AM 22.7550 112.7950 61° Northeast 510 587 26,600 2,100 Climbing FlightAware
08:26AM 49.1180 3.5520 322° Northwest 406 467 16,000  Descending FlightAware
08:26AM 22.6860 112.8630 61° Northeast 511 588 26,600 1,200 Climbing FlightAware
08:27AM 49.1360 3.6770 322° Northwest 430 495 16,900  Descending FlightAware
08:27AM 22.6170 112.9320 61° Northeast 511 588 26,600 1,920 Climbing FlightAware
08:27AM 49.1540 3.7970 322° Northwest 437 503 18,200 -720 Descending FlightAware
08:28AM 22.5380 113.0100 61° Northeast 508 585 26,100 1,980 Climbing FlightAware
08:28AM 49.1730 3.9340 322° Northwest 443 510 19,700 -1,200 Descending FlightAware
08:28AM 22.4660 113.0810 61° Northeast 503 579 25,300 1,920 Climbing FlightAware
08:29AM 49.1910 4.0600 322° Northwest 447 514 21,000 -1,740 Descending FlightAware
08:29AM 22.3940 113.1520 61° Northeast 492 566 24,000 1,200 Climbing FlightAware
08:29AM 49.2040 4.1490 322° Northwest 455 524 21,700 -2,100 Descending FlightAware
08:30AM 22.3250 113.2210 61° Northeast 476 548 22,600 1,440 Climbing FlightAware
08:30AM 49.2280 4.3190 322° Northwest 470 541 22,900 -540 Climbing FlightAware
08:30AM 22.2730 113.2730 62° Northeast 474 545 22,300 1,320 Descending FlightAware
08:31AM 49.2490 4.4200 322° Northwest 485 558 23,700  Climbing FlightAware
08:31AM 22.2050 113.3410 62° Northeast 474 545 22,300 1,560 Descending FlightAware
08:32AM 49.2840 4.5760 322° Northwest 489 563 24,900  Climbing FlightAware
08:32AM 22.1510 113.3960 62° Northeast 474 545 22,300 1,560 Descending FlightAware
08:32AM 49.3170 4.7280 322° Northwest 492 566 26,100  Climbing FlightAware
08:33AM 22.0960 113.4510 62° Northeast 474 545 22,300 -4,560 Descending FlightAware
08:33AM 22.0420 113.5060 137° Southeast 474 545 22,300 4,860 Level FlightAware
08:34AM 49.3690 4.9810 322° Northwest 507 583 27,600  Climbing FlightAware
08:34AM 21.9870 113.5610 62° Northeast 474 545 22,300 1,080 Descending FlightAware
08:34AM 49.4070 5.1660 322° Northwest 521 600 28,500 5,400 Climbing FlightAware
08:35AM 49.4360 5.3020 72° East 530 610 29,100 840 Climbing FlightAware
08:36AM 49.4690 5.4600 72° East 538 619 29,700 1,020 Climbing FlightAware
08:37AM 49.4990 5.6100 73° East 538 619 30,600 1,320 Climbing FlightAware
08:37AM 49.5280 5.7590 73° East 537 618 31,500 1,080 Climbing FlightAware
08:38AM 49.5570 5.9110 74° East 541 623 32,200 900 Climbing FlightAware
08:39AM 49.5840 6.0570 74° East 549 632 32,700 540 Climbing FlightAware
08:39AM 49.6150 6.2280 74° East 537 618 33,000 180 Climbing FlightAware
08:40AM 49.6610 6.3750 64° Northeast 542 624 33,000  Level FlightAware
08:41AM 49.7100 6.5230 63° Northeast 536 617 33,000  Level FlightAware
08:41AM 49.7580 6.6600 61° Northeast 539 620 33,000  Level FlightAware
08:42AM 49.8080 6.8010 61° Northeast 538 619 33,000  Level FlightAware
08:43AM 49.8600 6.9500 62° Northeast 530 610 33,000  Level FlightAware
08:44AM 49.9110 7.1000 62° Northeast 529 609 33,000  Level FlightAware
08:44AM 49.9590 7.2410 62° Northeast 523 602 33,000  Level FlightAware
08:45AM 50.0100 7.3900 62° Northeast 523 602 33,000  Level FlightAware
08:46AM 50.0490 7.5050 62° Northeast 522 601 33,000  Level FlightAware
08:46AM 50.1000 7.6560 62° Northeast 522 601 33,000  Level FlightAware
08:47AM 50.1470 7.7960 62° Northeast 522 601 33,000  Level FlightAware
08:48AM 50.1940 7.9360 62° Northeast 522 601 33,000  Level FlightAware
08:49AM 50.2430 8.0850 63° Northeast 521 600 33,000  Level FlightAware
08:49AM 50.2880 8.2210 63° Northeast 517 595 33,000  Level FlightAware
08:50AM 50.3310 8.3510 63° Northeast 515 593 33,000 -35,700 Level FlightAware
08:50AM 22.3080 113.8890 64° Northeast 123 142 300  Descending FlightAware
08:51AM 50.3810 8.5050 322° Northwest 513 590 33,000 28,020 Climbing FlightAware
08:51AM 50.4240 8.6380 322° Northwest 514 592 33,000 60 Level FlightAware
08:52AM 50.4670 8.7710 322° Northwest 515 593 33,100 420 Climbing FlightAware
08:53AM 50.5150 8.9210 322° Northwest 522 601 33,600 660 Climbing FlightAware